Adak Island, Alaska
Current Conditions -  °F | °C
As of 3:36 AM on Monday 24 Nov 2014 (Local Time) from PADK Reporting Station
Overcast Overcast  
Wind Chill:   Ceiling: 1400
Heat Index:   Visibility: 9mi
Dew Point:   Wind: 12mph
Humidity: 75%   Direction: 220°SW
Pressure: 29.75"   Gusts: NA
Location:  51.88°N, 176.65°W
Report Text: PADK 241236Z AUTO 22010KT 9SM OVC014 04/00 A2975 RMK AO1
Loading
Personal Weather Stations






























Interactive Weather Map New forecast layout! Learn more

10-Day Weather Forecast

Advertisements
Track Severe Weather on mobile